createdAt,value
2023-02-19T00:00:06.591Z,99588.81
2023-02-19T00:00:38.470Z,99593.34
2023-02-19T00:01:16.656Z,99596.78
2023-02-19T00:01:48.694Z,99586.38
2023-02-19T00:02:20.711Z,99590.59
2023-02-19T00:02:53.058Z,99589.84
2023-02-19T00:03:25.211Z,99595.75
2023-02-19T00:04:09.739Z,99595.75
2023-02-19T00:04:41.664Z,99598.25
2023-02-19T00:05:13.470Z,99593.88
2023-02-19T00:05:45.223Z,99594.66
2023-02-19T00:06:17.127Z,99589.50
2023-02-19T00:06:49.352Z,99588.81
2023-02-19T00:07:21.517Z,99590.53
2023-02-19T00:07:53.301Z,99589.66
2023-02-19T00:08:24.999Z,99590.59
2023-02-19T00:08:57.280Z,99588.88
2023-02-19T00:09:29.238Z,99592.50
2023-02-19T00:10:00.975Z,99604.69
2023-02-19T00:10:32.691Z,99590.59
2023-02-19T00:11:05.875Z,99596.72
2023-02-19T00:11:38.031Z,99596.78
2023-02-19T00:12:10.030Z,99595.16
2023-02-19T00:12:41.849Z,99596.78
2023-02-19T00:13:13.630Z,99590.81
2023-02-19T00:13:47.290Z,99598.56
2023-02-19T00:14:21.295Z,99592.56
2023-02-19T00:14:52.992Z,99588.09
2023-02-19T00:15:25.586Z,99588.09
2023-02-19T00:15:58.057Z,99600.47
2023-02-19T00:16:34.573Z,99596.25
2023-02-19T00:17:06.340Z,99599.66
2023-02-19T00:17:38.090Z,99596.13
2023-02-19T00:18:09.876Z,99605.94
2023-02-19T00:18:42.498Z,99601.78
2023-02-19T00:19:18.066Z,99607.97
2023-02-19T00:19:49.898Z,99603.69
2023-02-19T00:20:21.673Z,99600.16
2023-02-19T00:20:56.421Z,99603.69
2023-02-19T00:21:28.539Z,99609.59
2023-02-19T00:22:00.416Z,99599.91
2023-02-19T00:22:32.257Z,99598.72
2023-02-19T00:23:04.072Z,99595.91
2023-02-19T00:23:35.851Z,99602.09
2023-02-19T00:24:10.659Z,99595.22
2023-02-19T00:24:42.413Z,99604.69
2023-02-19T00:25:14.169Z,99585.38
2023-02-19T00:25:46.002Z,99587.88
2023-02-19T00:26:18.980Z,99600.13
2023-02-19T00:26:50.852Z,99590.59
2023-02-19T00:27:22.641Z,99595.75
2023-02-19T00:27:54.406Z,99594.06
2023-02-19T00:28:26.195Z,99589.84
2023-02-19T00:28:58.890Z,99602.94
2023-02-19T00:29:30.763Z,99579.09
2023-02-19T00:30:02.602Z,99583.66
2023-02-19T00:30:34.373Z,99589.91
2023-02-19T00:31:15.270Z,99581.75
2023-02-19T00:31:47.798Z,99585.22
2023-02-19T00:32:19.707Z,99541.75
2023-02-19T00:32:51.901Z,99570.97
2023-02-19T00:33:24.517Z,99579.03
2023-02-19T00:33:58.905Z,99557.69
2023-02-19T00:34:30.707Z,99577.16
2023-02-19T00:35:02.627Z,99581.69
2023-02-19T00:35:35.600Z,99575.53
2023-02-19T00:36:07.747Z,99566.84
2023-02-19T00:36:41.789Z,99570.22
2023-02-19T00:37:13.536Z,99583.56
2023-02-19T00:37:45.231Z,99580.84
2023-02-19T00:38:16.969Z,99578.19
2023-02-19T00:38:49.236Z,99557.78
2023-02-19T00:39:21.542Z,99559.41
2023-02-19T00:39:53.289Z,99583.16
2023-02-19T00:40:26.220Z,99579.03
2023-02-19T00:41:00.650Z,99585.22
2023-02-19T00:41:32.897Z,99595.84
2023-02-19T00:42:04.714Z,99576.44
2023-02-19T00:42:36.456Z,99578.25
2023-02-19T00:43:08.165Z,99590.59
2023-02-19T00:43:39.943Z,99593.41
2023-02-19T00:44:13.487Z,99603.97
2023-02-19T00:44:45.255Z,99601.22
2023-02-19T00:45:17.166Z,99587.00
2023-02-19T00:45:48.912Z,99590.53
2023-02-19T00:46:24.090Z,99589.66
2023-02-19T00:46:55.845Z,99596.78
2023-02-19T00:47:27.629Z,99558.47
2023-02-19T00:47:59.379Z,99568.06
2023-02-19T00:48:31.113Z,99590.28
2023-02-19T00:49:04.781Z,99596.38
2023-02-19T00:49:36.512Z,99583.03
2023-02-19T00:50:08.684Z,99595.44
2023-02-19T00:50:40.442Z,99590.19
2023-02-19T00:51:12.652Z,99595.59
2023-02-19T00:51:44.920Z,99589.25
2023-02-19T00:52:16.684Z,99589.50
2023-02-19T00:52:48.576Z,99593.09
2023-02-19T00:53:20.357Z,99592.16
2023-02-19T00:53:52.303Z,99588.63
2023-02-19T00:54:24.215Z,99585.13
2023-02-19T00:54:56.016Z,99591.28
2023-02-19T00:55:27.814Z,99587.06
2023-02-19T00:55:59.624Z,99589.91
2023-02-19T00:56:31.840Z,99586.47
2023-02-19T00:57:03.757Z,99590.94
2023-02-19T00:57:35.501Z,99594.59
2023-02-19T00:58:07.248Z,99593.75
2023-02-19T00:58:39.338Z,99595.44
2023-02-19T00:59:11.819Z,99584.22
2023-02-19T00:59:43.601Z,99596.63
2023-02-19T01:00:15.517Z,99588.97
2023-02-19T01:00:47.540Z,99586.25
2023-02-19T01:01:20.577Z,99592.94
2023-02-19T01:01:52.430Z,99590.22
2023-02-19T01:02:24.382Z,99592.88
2023-02-19T01:02:56.171Z,99590.31
2023-02-19T01:03:27.991Z,99591.31
2023-02-19T01:04:00.222Z,99593.88
2023-02-19T01:04:32.045Z,99587.97
2023-02-19T01:05:04.089Z,99588.03
2023-02-19T01:05:35.847Z,99576.81
2023-02-19T01:06:10.108Z,99588.19
2023-02-19T01:06:41.997Z,99582.88
2023-02-19T01:07:13.845Z,99587.97
2023-02-19T01:07:45.567Z,99586.94
2023-02-19T01:08:17.683Z,99588.66
2023-02-19T01:08:49.847Z,99587.81
2023-02-19T01:09:21.618Z,99585.31
2023-02-19T01:09:53.408Z,99584.44
2023-02-19T01:10:25.268Z,99583.53
2023-02-19T01:10:57.633Z,99578.28
2023-02-19T01:11:29.469Z,99588.72
2023-02-19T01:12:01.410Z,99582.72
2023-02-19T01:12:33.269Z,99588.13
2023-02-19T01:13:05.027Z,99580.06
2023-02-19T01:13:37.258Z,99573.84
2023-02-19T01:14:09.897Z,99578.03
2023-02-19T01:14:41.629Z,99572.72
2023-02-19T01:15:13.426Z,99573.66
2023-02-19T01:15:45.293Z,99569.56
2023-02-19T01:16:20.673Z,99579.22
2023-02-19T01:16:52.441Z,99581.00
2023-02-19T01:17:24.350Z,99565.16
2023-02-19T01:17:56.098Z,99574.00
2023-02-19T01:18:27.886Z,99564.63
2023-02-19T01:19:00.101Z,99556.34
2023-02-19T01:19:31.882Z,99569.84
2023-02-19T01:20:03.918Z,99559.22
2023-02-19T01:20:37.932Z,99561.97
2023-02-19T01:21:14.096Z,99553.22
2023-02-19T01:21:46.003Z,99564.69
2023-02-19T01:22:17.811Z,99561.19
2023-02-19T01:22:49.556Z,99568.28
2023-02-19T01:23:21.322Z,99579.00
2023-02-19T01:23:53.828Z,99576.41
2023-02-19T01:24:25.640Z,99584.38
2023-02-19T01:24:57.414Z,99583.50
2023-02-19T01:25:29.227Z,99582.81
2023-02-19T01:26:05.350Z,99565.78
2023-02-19T01:26:37.185Z,99581.56
2023-02-19T01:27:08.993Z,99580.78
2023-02-19T01:27:40.734Z,99564.88
2023-02-19T01:28:12.543Z,99579.22
2023-02-19T01:28:45.316Z,99573.84
2023-02-19T01:29:17.033Z,99571.91
2023-02-19T01:29:48.837Z,99582.34
2023-02-19T01:30:20.704Z,99581.50
2023-02-19T01:30:52.509Z,99573.44
2023-02-19T01:31:25.340Z,99582.34
2023-02-19T01:31:57.224Z,99576.09
2023-02-19T01:32:29.129Z,99568.13
2023-02-19T01:33:00.943Z,99548.00
2023-02-19T01:33:35.162Z,99576.03
2023-02-19T01:34:06.909Z,99572.44
2023-02-19T01:34:38.675Z,99583.06
2023-02-19T01:35:10.590Z,99584.78
2023-02-19T01:35:42.409Z,99578.59
2023-02-19T01:36:15.131Z,99574.28
2023-02-19T01:36:46.879Z,99573.31
2023-02-19T01:37:18.656Z,99579.47
2023-02-19T01:37:50.466Z,99571.50
2023-02-19T01:38:22.420Z,99568.97
2023-02-19T01:38:54.757Z,99575.94
2023-02-19T01:39:26.628Z,99573.19
2023-02-19T01:39:58.396Z,99575.00
2023-02-19T01:40:30.150Z,99577.66
2023-02-19T01:41:06.299Z,99579.53
2023-02-19T01:41:41.291Z,99572.59
2023-02-19T01:42:17.106Z,99576.94
2023-02-19T01:42:49.025Z,99545.19
2023-02-19T01:43:20.760Z,99574.38
2023-02-19T01:44:08.181Z,99573.53
2023-02-19T01:44:39.877Z,99576.19
2023-02-19T01:45:29.576Z,99568.22
2023-02-19T01:46:01.737Z,99567.34
2023-02-19T01:46:44.120Z,99566.31
2023-02-19T01:47:19.605Z,99575.16
2023-02-19T01:48:13.797Z,99563.66
2023-02-19T01:48:45.754Z,99573.38
2023-02-19T01:49:37.641Z,99589.28
2023-02-19T01:50:09.740Z,99574.47
2023-02-19T01:50:58.349Z,99573.69
2023-02-19T01:51:33.492Z,99583.28
2023-02-19T01:52:05.224Z,99578.75
2023-02-19T01:52:37.426Z,99578.84
2023-02-19T01:53:13.334Z,99584.22
2023-02-19T01:53:55.010Z,99573.69
2023-02-19T01:54:32.443Z,99579.75
2023-02-19T01:55:08.282Z,99565.78
2023-02-19T01:55:41.363Z,99573.69
2023-02-19T01:56:17.938Z,99578.19
2023-02-19T01:56:51.114Z,99573.59
2023-02-19T01:57:28.692Z,99571.09
2023-02-19T01:58:02.009Z,99557.94
2023-02-19T01:58:36.030Z,99566.72
2023-02-19T01:59:08.223Z,99569.47
2023-02-19T01:59:41.661Z,99573.91
2023-02-19T02:00:16.490Z,99570.47
2023-02-19T02:00:48.318Z,99573.84
2023-02-19T02:01:20.071Z,99550.88
2023-02-19T02:01:52.201Z,99550.19
2023-02-19T02:02:25.284Z,99565.97
2023-02-19T02:02:59.943Z,99558.16
2023-02-19T02:03:33.514Z,99554.63
2023-02-19T02:04:08.385Z,99537.69
2023-02-19T02:04:40.200Z,99568.78
2023-02-19T02:05:35.482Z,99566.88
2023-02-19T02:06:21.574Z,99563.47
2023-02-19T02:06:56.826Z,99561.03
2023-02-19T02:07:47.207Z,99572.28
2023-02-19T02:08:38.776Z,99562.50
2023-02-19T02:09:42.988Z,99558.16
2023-02-19T02:10:20.740Z,99545.88
2023-02-19T02:10:53.348Z,99563.47
2023-02-19T02:11:25.634Z,99569.75
2023-02-19T02:11:57.505Z,99566.19
2023-02-19T02:12:29.578Z,99576.81
2023-02-19T02:13:01.358Z,99575.94
2023-02-19T02:13:35.017Z,99578.59
2023-02-19T02:14:06.976Z,99573.38
2023-02-19T02:14:45.510Z,99569.94
2023-02-19T02:15:18.381Z,99575.25
2023-02-19T02:16:02.094Z,99576.03
2023-02-19T02:16:56.061Z,99585.63
2023-02-19T02:17:41.286Z,99573.13
2023-02-19T02:18:37.560Z,99537.09
2023-02-19T02:19:30.730Z,99577.34
2023-02-19T02:20:32.618Z,99574.78
2023-02-19T02:21:44.731Z,99564.31
2023-02-19T02:22:23.488Z,99559.03
2023-02-19T02:23:24.196Z,99542.13
2023-02-19T02:24:04.547Z,99548.31
2023-02-19T02:24:54.767Z,99558.00
2023-02-19T02:25:47.631Z,99562.50
2023-02-19T02:26:25.475Z,99558.00
2023-02-19T02:27:18.357Z,99571.56
2023-02-19T02:28:26.749Z,99529.25
2023-02-19T02:29:04.088Z,99548.44
2023-02-19T02:29:59.190Z,99543.28
2023-02-19T02:30:56.784Z,99538.84
2023-02-19T02:31:40.223Z,99548.44
2023-02-19T02:32:20.066Z,99540.63
2023-02-19T02:33:16.111Z,99524.81
2023-02-19T02:33:54.662Z,99511.81
2023-02-19T02:34:45.884Z,99532.78
2023-02-19T02:35:20.367Z,99538.91
2023-02-19T02:36:02.997Z,99552.91
2023-02-19T02:36:43.446Z,99529.94
2023-02-19T02:37:16.748Z,99547.75
2023-02-19T02:37:49.903Z,99545.94
2023-02-19T02:38:26.895Z,99504.25
2023-02-19T02:39:03.601Z,99531.75
2023-02-19T02:39:38.651Z,99548.59
2023-02-19T02:40:12.380Z,99545.19
2023-02-19T02:40:45.542Z,99536.25
2023-02-19T02:41:17.401Z,99542.28
2023-02-19T02:42:18.428Z,99528.06
2023-02-19T02:42:50.210Z,99526.38
2023-02-19T02:43:22.211Z,99510.50
2023-02-19T02:43:54.086Z,99526.19
2023-02-19T02:44:35.105Z,99526.09
2023-02-19T02:45:36.523Z,99473.84
2023-02-19T02:46:12.931Z,99490.72
2023-02-19T02:46:46.640Z,99523.59
2023-02-19T02:47:36.716Z,99548.13
2023-02-19T02:48:08.889Z,99526.09
2023-02-19T02:48:54.154Z,99506.66
2023-02-19T02:49:27.181Z,99541.16
2023-02-19T02:50:05.716Z,99519.31
2023-02-19T02:50:48.993Z,99549.94
2023-02-19T02:51:36.466Z,99536.03
2023-02-19T02:52:28.585Z,99524.53
2023-02-19T02:53:25.746Z,99499.00
2023-02-19T02:54:40.588Z,99503.47
2023-02-19T02:55:12.611Z,99532.38
2023-02-19T02:55:48.676Z,99515.66
2023-02-19T02:56:22.356Z,99488.06
2023-02-19T02:56:56.487Z,99480.94
2023-02-19T02:57:28.274Z,99505.13
2023-02-19T02:58:00.220Z,99516.50
2023-02-19T02:58:34.199Z,99509.72
2023-02-19T02:59:10.127Z,99517.59
2023-02-19T02:59:43.539Z,99509.56
2023-02-19T03:01:13.564Z,99507.69
2023-02-19T03:02:06.718Z,99517.28
2023-02-19T03:02:41.754Z,99518.28
2023-02-19T03:03:18.219Z,99506.91
2023-02-19T03:04:14.128Z,99517.53
2023-02-19T03:05:13.511Z,99546.75
2023-02-19T03:05:57.100Z,99534.56
2023-02-19T03:06:34.486Z,99529.84
2023-02-19T03:07:10.203Z,99553.63
2023-02-19T03:07:52.517Z,99541.28
2023-02-19T03:08:47.320Z,99558.28
2023-02-19T03:09:32.577Z,99551.19
2023-02-19T03:10:10.468Z,99562.69
2023-02-19T03:11:39.180Z,99580.25
2023-02-19T03:12:34.134Z,99570.47
2023-02-19T03:13:35.141Z,99566.91
2023-02-19T03:14:34.237Z,99577.34
2023-02-19T03:15:31.854Z,99543.59
2023-02-19T03:16:34.283Z,99567.66
2023-02-19T03:17:48.673Z,99558.06
2023-02-19T03:18:41.960Z,99572.81
2023-02-19T03:19:19.230Z,99488.69
2023-02-19T03:19:55.669Z,99522.28
2023-02-19T03:20:28.842Z,99566.41
2023-02-19T03:21:03.696Z,99539.22
2023-02-19T03:21:38.716Z,99555.31
2023-02-19T03:22:21.532Z,99562.41
2023-02-19T03:22:56.850Z,99541.16
2023-02-19T03:23:51.927Z,99558.13
2023-02-19T03:24:48.089Z,99553.91
2023-02-19T03:25:43.634Z,99550.31
2023-02-19T03:26:19.638Z,99532.66
2023-02-19T03:26:54.182Z,99493.78
2023-02-19T03:27:31.469Z,99544.16
2023-02-19T03:28:06.748Z,99562.97
2023-02-19T03:29:01.409Z,99569.94
2023-02-19T03:29:37.881Z,99554.94
2023-02-19T03:30:24.371Z,99523.31
2023-02-19T03:30:56.194Z,99571.72
2023-02-19T03:31:31.300Z,99567.53
2023-02-19T03:32:18.168Z,99567.75
2023-02-19T03:32:58.109Z,99527.84
2023-02-19T03:33:30.601Z,99544.66
2023-02-19T03:34:10.444Z,99552.69
2023-02-19T03:34:51.704Z,99572.03
2023-02-19T03:35:40.218Z,99548.13
2023-02-19T03:36:15.805Z,99564.22
2023-02-19T03:37:06.991Z,99560.31
2023-02-19T03:37:55.135Z,99574.56
2023-02-19T03:38:30.308Z,99573.69
2023-02-19T03:39:08.165Z,99560.16
2023-02-19T03:39:44.567Z,99553.16
2023-02-19T03:40:17.044Z,99576.09
2023-02-19T03:40:59.613Z,99559.44
2023-02-19T03:41:38.702Z,99572.50
2023-02-19T03:42:34.517Z,99543.28
2023-02-19T03:43:23.788Z,99577.91
2023-02-19T03:44:13.964Z,99574.22
2023-02-19T03:45:08.803Z,99575.09
2023-02-19T03:46:07.310Z,99582.13
2023-02-19T03:46:51.269Z,99554.44
2023-02-19T03:47:27.593Z,99598.59
2023-02-19T03:49:06.118Z,99606.47
2023-02-19T03:49:45.228Z,99596.88
2023-02-19T03:50:29.923Z,99599.34
2023-02-19T03:51:32.373Z,99593.19
2023-02-19T03:52:26.737Z,99598.50
2023-02-19T03:52:58.417Z,99602.88
2023-02-19T03:53:53.311Z,99607.44
2023-02-19T03:54:47.242Z,99603.97
2023-02-19T03:55:37.559Z,99610.91
2023-02-19T03:56:32.190Z,99611.00
2023-02-19T03:57:14.259Z,99612.97
2023-02-19T03:57:54.216Z,99608.59
2023-02-19T03:58:59.007Z,99587.44
2023-02-19T03:59:37.881Z,99601.41
2023-02-19T04:00:18.294Z,99600.63
2023-02-19T04:01:19.253Z,99595.13
2023-02-19T04:01:56.459Z,99534.22
2023-02-19T04:02:48.114Z,99577.25
2023-02-19T04:03:52.461Z,99577.50
2023-02-19T04:04:39.738Z,99592.59
2023-02-19T04:05:22.811Z,99568.75
2023-02-19T04:06:02.469Z,99593.84
2023-02-19T04:06:37.906Z,99587.56
2023-02-19T04:07:10.225Z,99576.81
2023-02-19T04:07:47.930Z,99599.75
2023-02-19T04:08:23.645Z,99536.19
2023-02-19T04:09:02.923Z,99581.41
2023-02-19T04:09:39.741Z,99588.59
2023-02-19T04:10:13.371Z,99591.88
2023-02-19T04:10:50.533Z,99585.63
2023-02-19T04:11:24.744Z,99578.59
2023-02-19T04:11:57.136Z,99604.38
2023-02-19T04:12:30.099Z,99595.63
2023-02-19T04:13:09.450Z,99601.72
2023-02-19T04:13:56.947Z,99599.91
2023-02-19T04:14:36.559Z,99602.50
2023-02-19T04:15:15.510Z,99602.50
2023-02-19T04:15:52.252Z,99599.91
2023-02-19T04:16:28.613Z,99597.19
2023-02-19T04:17:07.611Z,99599.91
2023-02-19T04:17:46.850Z,99592.81
2023-02-19T04:18:26.546Z,99599.06
2023-02-19T04:19:06.829Z,99586.09
2023-02-19T04:19:42.685Z,99590.38
2023-02-19T04:20:16.871Z,99595.69
2023-02-19T04:20:49.062Z,99604.47
2023-02-19T04:21:23.120Z,99600.16
2023-02-19T04:21:57.802Z,99596.72
2023-02-19T04:22:30.527Z,99594.13
2023-02-19T04:23:03.077Z,99593.97
2023-02-19T04:23:41.054Z,99584.31
2023-02-19T04:24:23.553Z,99602.72
2023-02-19T04:24:56.574Z,99593.91
2023-02-19T04:25:30.144Z,99606.25
2023-02-19T04:26:04.714Z,99580.97
2023-02-19T04:26:36.944Z,99602.03
2023-02-19T04:27:10.172Z,99569.31
2023-02-19T04:27:45.883Z,99585.41
2023-02-19T04:28:18.636Z,99586.00
2023-02-19T04:28:50.529Z,99601.09
2023-02-19T04:29:22.443Z,99609.84
2023-02-19T04:29:54.248Z,99614.13
2023-02-19T04:30:26.112Z,99598.34
2023-02-19T04:30:57.938Z,99611.47
2023-02-19T04:31:35.352Z,99558.53
2023-02-19T04:32:07.385Z,99600.16
2023-02-19T04:32:39.132Z,99594.84
2023-02-19T04:33:10.959Z,99604.59
2023-02-19T04:33:42.720Z,99610.00
2023-02-19T04:34:14.712Z,99602.09
2023-02-19T04:34:46.505Z,99603.75
2023-02-19T04:35:18.279Z,99598.59
2023-02-19T04:35:50.062Z,99567.75
2023-02-19T04:36:21.936Z,99576.63
2023-02-19T04:36:53.798Z,99580.16
2023-02-19T04:37:25.808Z,99582.81
2023-02-19T04:37:57.585Z,99594.34
2023-02-19T04:38:29.342Z,99591.63
2023-02-19T04:39:01.170Z,99609.19
2023-02-19T04:39:33.456Z,99607.63
2023-02-19T04:40:05.478Z,99612.00
2023-02-19T04:40:37.227Z,99609.53
2023-02-19T04:41:10.577Z,99610.44
2023-02-19T04:41:42.416Z,99612.19
2023-02-19T04:42:14.278Z,99602.59
2023-02-19T04:42:46.152Z,99607.63
2023-02-19T04:43:18.877Z,99594.28
2023-02-19T04:43:50.613Z,99601.56
2023-02-19T04:44:22.454Z,99604.22
2023-02-19T04:44:54.335Z,99561.75
2023-02-19T04:45:26.362Z,99547.59
2023-02-19T04:46:01.902Z,99580.09
2023-02-19T04:46:33.967Z,99591.56
2023-02-19T04:47:05.724Z,99594.22
2023-02-19T04:47:37.538Z,99597.66
2023-02-19T04:48:09.541Z,99587.13
2023-02-19T04:48:43.132Z,99580.09
2023-02-19T04:49:15.159Z,99588.81
2023-02-19T04:49:47.011Z,99595.78
2023-02-19T04:50:18.875Z,99596.72
2023-02-19T04:50:50.669Z,99562.22
2023-02-19T04:51:22.521Z,99598.28
2023-02-19T04:51:54.369Z,99594.84
2023-02-19T04:52:26.137Z,99598.28
2023-02-19T04:52:58.131Z,99596.41
2023-02-19T04:53:29.876Z,99598.13
2023-02-19T04:54:01.685Z,99572.50
2023-02-19T04:54:33.466Z,99592.81
2023-02-19T04:55:05.759Z,99591.03
2023-02-19T04:55:40.200Z,99595.41
2023-02-19T04:56:14.465Z,99591.03
2023-02-19T04:56:46.234Z,99582.97
2023-02-19T04:57:18.002Z,99586.47
2023-02-19T04:57:49.900Z,99595.41
2023-02-19T04:58:21.957Z,99592.66
2023-02-19T04:58:53.700Z,99593.44
2023-02-19T04:59:25.531Z,99584.53
2023-02-19T04:59:57.704Z,99581.88
2023-02-19T05:00:29.467Z,99583.53
2023-02-19T05:01:01.405Z,99593.19
2023-02-19T05:01:33.287Z,99584.34
2023-02-19T05:02:05.088Z,99595.13
2023-02-19T05:02:36.896Z,99588.03
2023-02-19T05:03:08.671Z,99600.22
2023-02-19T05:03:40.907Z,99588.91
2023-02-19T05:04:12.695Z,99579.13
2023-02-19T05:04:44.572Z,99581.88
2023-02-19T05:05:16.379Z,99586.25
2023-02-19T05:05:48.108Z,99600.28
2023-02-19T05:06:20.175Z,99578.97
2023-02-19T05:06:51.953Z,99591.22
2023-02-19T05:07:23.658Z,99578.97
2023-02-19T05:07:55.497Z,99588.56
2023-02-19T05:08:27.289Z,99584.06
2023-02-19T05:08:59.135Z,99579.59
2023-02-19T05:09:30.867Z,99588.56
2023-02-19T05:10:02.749Z,99585.09
2023-02-19T05:10:34.980Z,99585.09
2023-02-19T05:11:09.341Z,99576.84
2023-02-19T05:11:41.329Z,99584.75
2023-02-19T05:12:13.092Z,99578.59
2023-02-19T05:12:44.881Z,99588.19
2023-02-19T05:13:16.635Z,99578.50
2023-02-19T05:13:48.442Z,99581.31
2023-02-19T05:14:20.303Z,99585.78
2023-02-19T05:14:52.262Z,99577.94
2023-02-19T05:15:24.024Z,99586.63
2023-02-19T05:16:00.231Z,99573.50
2023-02-19T05:16:33.246Z,99583.13
2023-02-19T05:17:05.021Z,99566.22
2023-02-19T05:17:36.966Z,99577.31
2023-02-19T05:18:08.786Z,99573.91
2023-02-19T05:18:41.501Z,99566.09
2023-02-19T05:19:13.823Z,99574.88
2023-02-19T05:19:45.564Z,99576.72
2023-02-19T05:20:17.566Z,99581.00
2023-02-19T05:20:50.376Z,99573.97
2023-02-19T05:21:22.252Z,99563.44
2023-02-19T05:21:54.018Z,99576.72
2023-02-19T05:22:25.804Z,99577.41
2023-02-19T05:22:57.590Z,99581.75
2023-02-19T05:23:29.664Z,99579.91
2023-02-19T05:24:01.447Z,99577.41
2023-02-19T05:24:33.194Z,99573.72
2023-02-19T05:25:05.576Z,99577.41
2023-02-19T05:25:37.344Z,99578.50
2023-02-19T05:26:13.753Z,99573.19
2023-02-19T05:26:45.636Z,99578.41
2023-02-19T05:27:17.522Z,99578.25
2023-02-19T05:27:49.282Z,99574.59
2023-02-19T05:28:28.593Z,99563.16
2023-02-19T05:29:00.768Z,99568.25
2023-02-19T05:29:32.936Z,99561.38
2023-02-19T05:30:05.076Z,99567.47
2023-02-19T05:30:36.976Z,99566.38
2023-02-19T05:31:09.854Z,99561.06
2023-02-19T05:31:42.159Z,99572.28
2023-02-19T05:32:14.038Z,99574.03
2023-02-19T05:32:45.796Z,99567.91
2023-02-19T05:33:19.982Z,99566.03
2023-02-19T05:33:53.063Z,99557.16
2023-02-19T05:34:24.919Z,99562.34
2023-02-19T05:34:56.722Z,99573.69
2023-02-19T05:35:28.501Z,99580.66
2023-02-19T05:36:00.239Z,99571.13
2023-02-19T05:36:32.653Z,99572.06
2023-02-19T05:37:04.511Z,99581.47
2023-02-19T05:37:36.288Z,99569.41
2023-02-19T05:38:08.211Z,99579.63
2023-02-19T05:38:41.576Z,99577.72
2023-02-19T05:39:13.372Z,99576.78
2023-02-19T05:39:45.093Z,99568.75
2023-02-19T05:40:17.043Z,99573.88
2023-02-19T05:40:48.976Z,99563.34
2023-02-19T05:41:31.267Z,99563.50
2023-02-19T05:42:03.341Z,99567.97
2023-02-19T05:42:35.134Z,99569.84
2023-02-19T05:43:07.820Z,99564.72
2023-02-19T05:43:41.356Z,99561.88
2023-02-19T05:44:13.159Z,99573.03
2023-02-19T05:44:44.935Z,99568.41
2023-02-19T05:45:16.731Z,99572.00
2023-02-19T05:45:48.528Z,99569.19
2023-02-19T05:46:24.335Z,99563.88
2023-02-19T05:46:56.180Z,99550.03
2023-02-19T05:47:27.977Z,99561.47
2023-02-19T05:47:59.864Z,99569.34
2023-02-19T05:48:31.728Z,99567.72
2023-02-19T05:49:03.654Z,99554.59
2023-02-19T05:49:35.473Z,99554.59
2023-02-19T05:50:07.447Z,99560.84
2023-02-19T05:50:39.984Z,99547.72
2023-02-19T05:51:14.946Z,99559.13
2023-02-19T05:51:46.671Z,99538.13
2023-02-19T05:52:18.422Z,99552.34
2023-02-19T05:52:50.195Z,99560.31
2023-02-19T05:53:22.032Z,99563.69
2023-02-19T05:53:54.002Z,99559.28
2023-02-19T05:54:29.493Z,99562.81
2023-02-19T05:55:01.253Z,99558.44
2023-02-19T05:55:36.351Z,99558.34
2023-02-19T05:56:26.068Z,99560.56
2023-02-19T05:56:58.019Z,99560.16
2023-02-19T05:57:29.770Z,99567.88
2023-02-19T05:58:01.874Z,99567.88
2023-02-19T05:58:33.655Z,99565.41
2023-02-19T05:59:18.676Z,99561.09
2023-02-19T05:59:50.439Z,99568.13
2023-02-19T06:00:22.594Z,99572.56
2023-02-19T06:00:55.345Z,99568.19
2023-02-19T06:01:29.768Z,99572.56
2023-02-19T06:02:01.571Z,99569.84
2023-02-19T06:02:33.463Z,99573.38
2023-02-19T06:03:05.271Z,99569.84
2023-02-19T06:03:37.094Z,99574.31
2023-02-19T06:04:11.449Z,99576.97
2023-02-19T06:04:43.289Z,99573.50
2023-02-19T06:05:15.301Z,99572.81
2023-02-19T06:05:47.393Z,99567.66
2023-02-19T06:06:20.089Z,99574.72
2023-02-19T06:06:51.937Z,99567.84
2023-02-19T06:07:23.681Z,99571.25
2023-02-19T06:07:55.431Z,99571.25
2023-02-19T06:08:27.152Z,99565.13
2023-02-19T06:08:58.877Z,99565.00
2023-02-19T06:09:32.960Z,99563.38
2023-02-19T06:10:05.377Z,99567.84
2023-02-19T06:10:40.330Z,99557.38
2023-02-19T06:11:12.535Z,99564.56
2023-02-19T06:11:44.993Z,99569.72
2023-02-19T06:12:16.928Z,99559.81
2023-02-19T06:12:52.217Z,99562.19
2023-02-19T06:13:56.021Z,99562.06
2023-02-19T06:14:27.800Z,99568.88
2023-02-19T06:14:59.601Z,99569.00
2023-02-19T06:15:31.406Z,99568.75
2023-02-19T06:16:07.922Z,99566.94
2023-02-19T06:16:39.807Z,99574.81
2023-02-19T06:17:11.549Z,99574.94
2023-02-19T06:17:43.282Z,99565.91
2023-02-19T06:18:15.065Z,99565.91
2023-02-19T06:18:46.900Z,99565.13
2023-02-19T06:19:18.781Z,99563.25
2023-02-19T06:19:50.510Z,99557.00
2023-02-19T06:20:22.273Z,99563.88
2023-02-19T06:20:54.015Z,99561.13
2023-02-19T06:21:25.792Z,99556.59
2023-02-19T06:21:57.586Z,99561.13
2023-02-19T06:22:29.379Z,99559.41
2023-02-19T06:23:01.173Z,99568.06
2023-02-19T06:23:33.223Z,99560.09
2023-02-19T06:24:09.827Z,99558.22
2023-02-19T06:24:41.577Z,99565.34
2023-02-19T06:25:13.418Z,99566.19
2023-02-19T06:25:45.200Z,99564.47
2023-02-19T06:26:20.586Z,99564.41
2023-02-19T06:26:52.473Z,99560.94
2023-02-19T06:27:24.244Z,99566.19
2023-02-19T06:27:56.047Z,99570.44
2023-02-19T06:28:28.133Z,99577.59
2023-02-19T06:29:00.039Z,99569.78
2023-02-19T06:29:32.836Z,99569.63
2023-02-19T06:30:05.087Z,99572.28
2023-02-19T06:30:37.326Z,99574.16
2023-02-19T06:31:11.303Z,99575.22
2023-02-19T06:31:44.945Z,99576.22
2023-02-19T06:32:16.924Z,99565.41
2023-02-19T06:32:52.060Z,99573.38
2023-02-19T06:33:23.911Z,99572.56
2023-02-19T06:33:55.691Z,99570.03
2023-02-19T06:34:27.523Z,99572.78
2023-02-19T06:34:59.321Z,99570.88
2023-02-19T06:35:31.161Z,99575.34
2023-02-19T06:36:04.573Z,99568.47
2023-02-19T06:36:36.348Z,99565.81
2023-02-19T06:37:08.216Z,99577.00
2023-02-19T06:37:40.002Z,99577.88
2023-02-19T06:38:11.726Z,99579.56
2023-02-19T06:38:43.802Z,99578.56
2023-02-19T06:39:15.600Z,99576.72
2023-02-19T06:39:47.526Z,99580.25
2023-02-19T06:40:19.522Z,99588.13
2023-02-19T06:40:51.428Z,99582.53
2023-02-19T06:41:23.169Z,99584.25
2023-02-19T06:41:56.630Z,99585.13
2023-02-19T06:42:32.641Z,99576.44
2023-02-19T06:43:04.459Z,99583.31
2023-02-19T06:43:36.576Z,99581.75
2023-02-19T06:44:08.779Z,99574.81
2023-02-19T06:44:40.533Z,99583.38
2023-02-19T06:45:12.321Z,99582.22
2023-02-19T06:45:44.130Z,99583.13
2023-02-19T06:46:15.977Z,99584.00
2023-02-19T06:46:47.955Z,99584.25
2023-02-19T06:47:19.677Z,99573.69
2023-02-19T06:47:51.496Z,99583.50
2023-02-19T06:48:23.227Z,99586.22
2023-02-19T06:48:54.975Z,99582.53
2023-02-19T06:49:26.936Z,99577.22
2023-02-19T06:49:59.412Z,99584.19
2023-02-19T06:50:31.464Z,99578.94
2023-02-19T06:51:03.669Z,99577.75
2023-02-19T06:51:35.568Z,99590.00
2023-02-19T06:52:07.623Z,99578.69
2023-02-19T06:52:39.401Z,99580.41
2023-02-19T06:53:11.832Z,99586.50
2023-02-19T06:53:43.620Z,99581.00
2023-02-19T06:54:15.380Z,99587.19
2023-02-19T06:54:47.077Z,99578.34
2023-02-19T06:55:18.806Z,99584.44
2023-02-19T06:56:01.905Z,99578.25
2023-02-19T06:56:42.256Z,99574.75
2023-02-19T06:57:14.039Z,99565.97
2023-02-19T06:57:45.762Z,99576.88
2023-02-19T06:58:17.610Z,99575.09
2023-02-19T06:58:49.393Z,99564.53
2023-02-19T06:59:21.162Z,99571.56
2023-02-19T06:59:52.891Z,99566.31
2023-02-19T07:00:24.765Z,99575.78